createdAt,value
2019-02-06T00:01:00.005Z,102419.79
2019-02-06T00:03:30.005Z,102419.91
2019-02-06T00:06:00.392Z,102424.77
2019-02-06T00:08:30.716Z,102420.86
2019-02-06T00:11:00.738Z,102421.25
2019-02-06T00:13:31.328Z,102423.32
2019-02-06T00:16:01.626Z,102420.44
2019-02-06T00:18:31.622Z,102425.41
2019-02-06T00:21:01.753Z,102428.92
2019-02-06T00:23:31.719Z,102432.45
2019-02-06T00:26:01.993Z,102431.58
2019-02-06T00:28:32.344Z,102428.30
2019-02-06T00:31:02.427Z,102434.20
2019-02-06T00:33:32.726Z,102428.77
2019-02-06T00:36:03.095Z,102426.20
2019-02-06T00:38:33.051Z,102428.88
2019-02-06T00:41:03.024Z,102424.52
2019-02-06T00:43:33.058Z,102418.34
2019-02-06T00:46:03.043Z,102422.28
2019-02-06T00:48:32.919Z,102424.14
2019-02-06T00:51:02.923Z,102429.98
2019-02-06T00:53:32.936Z,102432.62
2019-02-06T00:56:03.213Z,102432.92
2019-02-06T00:58:33.414Z,102425.02
2019-02-06T01:01:03.471Z,102423.58
2019-02-06T01:03:33.440Z,102422.91
2019-02-06T01:06:03.622Z,102432.85
2019-02-06T01:08:33.786Z,102433.42
2019-02-06T01:11:04.190Z,102430.70
2019-02-06T01:13:34.085Z,102435.48
2019-02-06T01:16:04.059Z,102437.42
2019-02-06T01:18:34.023Z,102430.30
2019-02-06T01:21:04.072Z,102432.55
2019-02-06T01:23:34.060Z,102429.74
2019-02-06T01:26:04.556Z,102429.89
2019-02-06T01:28:34.701Z,102428.91
2019-02-06T01:31:09.584Z,102420.45
2019-02-06T01:33:39.513Z,102425.08
2019-02-06T01:36:09.435Z,102424.29
2019-02-06T01:38:39.488Z,102425.55
2019-02-06T01:41:09.485Z,102431.02
2019-02-06T01:43:39.443Z,102431.18
2019-02-06T01:46:09.443Z,102432.30
2019-02-06T01:48:39.338Z,102434.06
2019-02-06T01:51:09.556Z,102434.61
2019-02-06T01:53:39.664Z,102435.17
2019-02-06T01:56:09.714Z,102431.02
2019-02-06T01:58:39.596Z,102431.02
2019-02-06T02:01:09.650Z,102433.42
2019-02-06T02:03:39.566Z,102433.11
2019-02-06T02:06:09.697Z,102433.11
2019-02-06T02:08:44.661Z,102436.85
2019-02-06T02:11:14.687Z,102434.50
2019-02-06T02:13:47.494Z,102429.18
2019-02-06T02:16:17.414Z,102429.08
2019-02-06T02:18:47.387Z,102420.77
2019-02-06T02:21:17.438Z,102423.80
2019-02-06T02:23:47.410Z,102430.15
2019-02-06T02:26:19.222Z,102431.17
2019-02-06T02:28:49.173Z,102437.18
2019-02-06T02:31:19.118Z,102439.52
2019-02-06T02:33:48.996Z,102437.33
2019-02-06T02:36:19.287Z,102435.53
2019-02-06T02:38:49.354Z,102435.70
2019-02-06T02:41:19.617Z,102432.15
2019-02-06T02:43:49.521Z,102438.23
2019-02-06T02:46:19.413Z,102431.16
2019-02-06T02:48:49.375Z,102427.80
2019-02-06T02:51:19.391Z,102436.40
2019-02-06T02:53:49.332Z,102435.88
2019-02-06T02:56:19.222Z,102425.06
2019-02-06T02:58:49.149Z,102425.02
2019-02-06T03:01:41.031Z,102423.34
2019-02-06T03:04:19.269Z,102425.24
2019-02-06T03:06:50.118Z,102426.77
2019-02-06T03:09:20.072Z,102421.24
2019-02-06T03:11:50.080Z,102425.48
2019-02-06T03:14:20.114Z,102422.75
2019-02-06T03:16:50.007Z,102421.08
2019-02-06T03:19:20.391Z,102414.52
2019-02-06T03:21:50.289Z,102414.53
2019-02-06T03:24:20.222Z,102413.06
2019-02-06T03:26:50.660Z,102407.95
2019-02-06T03:29:20.548Z,102412.19
2019-02-06T03:31:51.141Z,102410.05
2019-02-06T03:34:21.078Z,102415.05
2019-02-06T03:36:51.210Z,102411.88
2019-02-06T03:39:21.219Z,102407.78
2019-02-06T03:41:51.600Z,102406.20
2019-02-06T03:44:21.705Z,102402.81
2019-02-06T03:46:51.595Z,102398.25
2019-02-06T03:49:21.604Z,102396.44
2019-02-06T03:51:51.537Z,102398.91
2019-02-06T03:54:21.553Z,102397.63
2019-02-06T03:56:51.961Z,102398.68
2019-02-06T03:59:21.893Z,102401.87
2019-02-06T04:01:52.130Z,102404.58
2019-02-06T04:04:22.008Z,102401.87
2019-02-06T04:06:58.233Z,102403.75
2019-02-06T04:09:23.799Z,102410.39
2019-02-06T04:11:53.691Z,102401.25
2019-02-06T04:14:23.875Z,102399.63
2019-02-06T04:16:53.825Z,102395.00
2019-02-06T04:19:23.780Z,102397.66
2019-02-06T04:21:53.779Z,102391.47
2019-02-06T04:24:24.203Z,102388.59
2019-02-06T04:26:54.159Z,102384.26
2019-02-06T04:29:24.608Z,102390.03
2019-02-06T04:31:54.493Z,102390.19
2019-02-06T04:34:24.479Z,102388.61
2019-02-06T04:37:05.824Z,102391.47
2019-02-06T04:39:26.110Z,102386.19
2019-02-06T04:41:56.051Z,102388.50
2019-02-06T04:44:25.992Z,102382.98
2019-02-06T04:46:55.890Z,102379.13
2019-02-06T04:49:25.825Z,102384.56
2019-02-06T04:51:55.742Z,102381.53
2019-02-06T04:54:25.761Z,102378.14
2019-02-06T04:56:55.773Z,102380.34
2019-02-06T04:59:26.055Z,102380.41
2019-02-06T05:01:55.991Z,102376.40
2019-02-06T05:04:25.956Z,102383.37
2019-02-06T05:06:55.886Z,102375.59
2019-02-06T05:09:26.125Z,102377.67
2019-02-06T05:11:56.114Z,102377.09
2019-02-06T05:14:26.390Z,102370.75
2019-02-06T05:16:56.416Z,102370.30
2019-02-06T05:19:26.440Z,102373.45
2019-02-06T05:21:56.353Z,102371.20
2019-02-06T05:24:26.645Z,102383.41
2019-02-06T05:26:56.811Z,102370.06
2019-02-06T05:29:26.685Z,102373.50
2019-02-06T05:31:56.597Z,102367.53
2019-02-06T05:34:27.120Z,102366.44
2019-02-06T05:36:57.758Z,102376.84
2019-02-06T05:39:27.717Z,102374.89
2019-02-06T05:41:57.980Z,102374.89
2019-02-06T05:44:28.013Z,102384.35
2019-02-06T05:46:57.960Z,102384.17
2019-02-06T05:49:28.340Z,102384.08
2019-02-06T05:51:58.680Z,102377.41
2019-02-06T05:54:28.558Z,102380.78
2019-02-06T05:56:58.531Z,102376.64
2019-02-06T05:59:28.446Z,102375.00
2019-02-06T06:01:58.454Z,102373.20
2019-02-06T06:04:28.402Z,102369.34
2019-02-06T06:06:58.800Z,102372.50
2019-02-06T06:09:28.751Z,102372.20
2019-02-06T06:11:58.670Z,102381.63
2019-02-06T06:14:28.832Z,102379.37
2019-02-06T06:16:59.090Z,102386.96
2019-02-06T06:19:29.101Z,102383.90
2019-02-06T06:21:59.284Z,102380.11
2019-02-06T06:24:29.631Z,102378.18
2019-02-06T06:26:59.564Z,102376.67
2019-02-06T06:29:29.741Z,102373.06
2019-02-06T06:31:59.700Z,102375.69
2019-02-06T06:34:29.641Z,102371.84
2019-02-06T06:37:00.236Z,102378.84
2019-02-06T06:39:30.186Z,102373.95
2019-02-06T06:42:00.492Z,102372.44
2019-02-06T06:44:30.460Z,102367.04
2019-02-06T06:47:01.307Z,102365.23
2019-02-06T06:49:31.318Z,102367.31
2019-02-06T06:52:03.885Z,102365.23
2019-02-06T06:54:33.239Z,102366.10
2019-02-06T06:57:03.973Z,102362.51
2019-02-06T06:59:34.152Z,102358.38
2019-02-06T07:02:05.350Z,102351.41
2019-02-06T07:04:36.425Z,102352.99
2019-02-06T07:07:07.110Z,102350.60
2019-02-06T07:09:37.223Z,102347.61
2019-02-06T07:12:08.229Z,102349.19
2019-02-06T07:14:39.071Z,102342.96
2019-02-06T07:17:09.250Z,102339.48
2019-02-06T07:19:39.690Z,102338.82
2019-02-06T07:22:09.676Z,102333.70
2019-02-06T07:24:39.740Z,102323.73
2019-02-06T07:27:12.308Z,102317.86
2019-02-06T07:29:42.297Z,102316.06
2019-02-06T07:32:12.630Z,102305.72
2019-02-06T07:34:42.631Z,102309.83
2019-02-06T07:37:12.529Z,102315.17
2019-02-06T07:39:42.443Z,102318.41
2019-02-06T07:42:12.370Z,102322.93
2019-02-06T07:44:42.429Z,102330.05
2019-02-06T07:47:12.863Z,102327.38
2019-02-06T07:49:42.904Z,102337.41
2019-02-06T07:52:12.881Z,102333.18
2019-02-06T07:54:43.224Z,102336.86
2019-02-06T07:57:13.256Z,102330.20
2019-02-06T07:59:43.247Z,102333.86
2019-02-06T08:02:13.513Z,102340.86
2019-02-06T08:04:43.662Z,102339.73
2019-02-06T08:07:13.659Z,102334.36
2019-02-06T08:09:43.657Z,102330.05
2019-02-06T08:12:14.003Z,102322.23
2019-02-06T08:14:44.092Z,102325.18
2019-02-06T08:17:14.904Z,102323.91
2019-02-06T08:19:44.936Z,102317.73
2019-02-06T08:22:15.279Z,102323.82
2019-02-06T08:24:45.266Z,102320.80
2019-02-06T08:27:16.183Z,102315.27
2019-02-06T08:29:46.681Z,102313.73
2019-02-06T08:32:16.531Z,102312.38
2019-02-06T08:34:46.530Z,102309.68
2019-02-06T08:37:16.468Z,102310.41
2019-02-06T08:39:46.468Z,102303.91
2019-02-06T08:42:16.720Z,102305.59
2019-02-06T08:44:46.990Z,102300.56
2019-02-06T08:47:17.052Z,102310.64
2019-02-06T08:49:47.758Z,102298.47
2019-02-06T08:52:17.965Z,102289.20
2019-02-06T08:54:47.842Z,102288.70
2019-02-06T08:57:17.856Z,102283.98
2019-02-06T08:59:48.130Z,102273.83
2019-02-06T09:02:18.194Z,102278.28
2019-02-06T09:04:55.565Z,102277.00
2019-02-06T09:07:20.075Z,102276.52
2019-02-06T09:09:50.556Z,102281.16
2019-02-06T09:12:20.931Z,102276.04
2019-02-06T09:14:50.995Z,102276.98
2019-02-06T09:17:21.023Z,102277.28
2019-02-06T09:19:50.984Z,102286.34
2019-02-06T09:22:20.956Z,102277.55
2019-02-06T09:24:50.898Z,102274.84
2019-02-06T09:27:21.164Z,102273.12
2019-02-06T09:29:51.220Z,102285.96
2019-02-06T09:32:23.052Z,102287.79
2019-02-06T09:34:53.092Z,102282.53
2019-02-06T09:37:24.355Z,102284.68
2019-02-06T09:39:54.436Z,102280.58
2019-02-06T09:42:24.602Z,102271.08
2019-02-06T09:44:55.755Z,102264.90
2019-02-06T09:47:26.091Z,102258.27
2019-02-06T09:49:57.972Z,102261.52
2019-02-06T09:52:28.883Z,102259.64
2019-02-06T09:54:59.161Z,102259.78
2019-02-06T09:57:29.222Z,102261.89
2019-02-06T09:59:59.367Z,102254.04
2019-02-06T10:02:29.676Z,102247.51
2019-02-06T10:04:59.646Z,102253.98
2019-02-06T10:07:29.761Z,102245.06
2019-02-06T10:10:00.328Z,102242.22
2019-02-06T10:12:30.292Z,102241.59
2019-02-06T10:15:00.401Z,102245.80
2019-02-06T10:17:30.317Z,102236.47
2019-02-06T10:20:00.350Z,102238.38
2019-02-06T10:22:30.677Z,102223.80
2019-02-06T10:25:00.965Z,102213.53
2019-02-06T10:27:31.073Z,102201.35
2019-02-06T10:30:03.847Z,102199.87
2019-02-06T10:32:32.703Z,102193.45
2019-02-06T10:35:02.699Z,102192.03
2019-02-06T10:37:33.194Z,102190.34
2019-02-06T10:40:03.323Z,102190.27
2019-02-06T10:42:33.274Z,102184.88
2019-02-06T10:45:03.324Z,102181.00
2019-02-06T10:47:33.579Z,102175.28
2019-02-06T10:50:03.770Z,102177.27
2019-02-06T10:52:34.108Z,102173.11
2019-02-06T10:55:04.643Z,102166.50
2019-02-06T10:57:34.828Z,102162.42
2019-02-06T11:00:10.939Z,102164.03
2019-02-06T11:02:41.049Z,102159.30
2019-02-06T11:05:11.709Z,102158.70
2019-02-06T11:07:41.775Z,102163.80
2019-02-06T11:10:12.882Z,102155.80
2019-02-06T11:12:42.789Z,102149.06
2019-02-06T11:15:13.638Z,102141.76
2019-02-06T11:17:43.727Z,102135.32
2019-02-06T11:20:17.642Z,102138.25
2019-02-06T11:22:51.618Z,102138.34
2019-02-06T11:25:21.848Z,102142.64
2019-02-06T11:27:51.767Z,102140.34
2019-02-06T11:30:25.071Z,102132.09
2019-02-06T11:32:55.745Z,102129.51
2019-02-06T11:35:25.923Z,102124.35
2019-02-06T11:37:56.415Z,102118.16
2019-02-06T11:40:26.588Z,102113.70
2019-02-06T11:42:57.263Z,102106.85
2019-02-06T11:45:30.889Z,102099.44
2019-02-06T11:48:01.168Z,102109.47
2019-02-06T11:50:42.634Z,102106.44
2019-02-06T11:53:22.073Z,102095.07
2019-02-06T11:55:52.361Z,102083.90
2019-02-06T11:58:22.437Z,102079.56
2019-02-06T12:01:08.104Z,102066.59
2019-02-06T12:03:38.039Z,102067.98
2019-02-06T12:06:08.191Z,102051.02
2019-02-06T12:08:38.343Z,102044.82
2019-02-06T12:11:08.459Z,102049.87
2019-02-06T12:13:38.474Z,102048.87
2019-02-06T12:16:08.542Z,102053.66
2019-02-06T12:18:38.566Z,102056.16
2019-02-06T12:21:08.630Z,102039.05
2019-02-06T12:23:38.657Z,102033.14
2019-02-06T12:26:09.117Z,102029.45
2019-02-06T12:28:39.047Z,102022.84
2019-02-06T12:31:09.030Z,102017.70
2019-02-06T12:33:39.439Z,102012.15
2019-02-06T12:36:09.798Z,102010.34
2019-02-06T12:38:40.039Z,102001.19
2019-02-06T12:41:10.219Z,101998.22
2019-02-06T12:43:40.152Z,101993.54
2019-02-06T12:46:10.056Z,101984.48
2019-02-06T12:48:40.279Z,101976.17
2019-02-06T12:51:10.475Z,101977.01
2019-02-06T12:53:40.791Z,101973.50
2019-02-06T12:56:10.855Z,101975.36
2019-02-06T12:58:41.072Z,101970.02
2019-02-06T13:01:11.366Z,101968.09
2019-02-06T13:03:41.322Z,101961.86
2019-02-06T13:06:11.297Z,101962.39
2019-02-06T13:08:41.733Z,101961.86
2019-02-06T13:11:11.985Z,101960.95
2019-02-06T13:13:45.044Z,101957.88
2019-02-06T13:16:13.602Z,101948.80
2019-02-06T13:18:43.750Z,101948.58
2019-02-06T13:21:13.897Z,101944.27
2019-02-06T13:23:44.272Z,101940.95
2019-02-06T13:26:14.491Z,101941.59
2019-02-06T13:28:44.622Z,101946.17
2019-02-06T13:31:14.603Z,101941.05
2019-02-06T13:33:44.523Z,101934.65
2019-02-06T13:36:14.550Z,101936.52
2019-02-06T13:38:44.524Z,101938.05
2019-02-06T13:41:14.787Z,101939.28
2019-02-06T13:43:44.738Z,101933.65
2019-02-06T13:46:14.705Z,101930.88
2019-02-06T13:48:44.642Z,101935.71
2019-02-06T13:51:19.050Z,101933.39
2019-02-06T13:53:46.893Z,101929.41
2019-02-06T13:56:16.835Z,101918.02
2019-02-06T13:58:46.777Z,101916.09
2019-02-06T14:01:25.312Z,101909.94
2019-02-06T14:03:48.662Z,101905.83
2019-02-06T14:06:18.759Z,101897.36
2019-02-06T14:08:48.700Z,101897.63
2019-02-06T14:11:18.674Z,101896.56
2019-02-06T14:13:48.628Z,101894.14
2019-02-06T14:16:18.986Z,101898.02
2019-02-06T14:18:49.186Z,101891.74
2019-02-06T14:21:19.082Z,101879.33
2019-02-06T14:24:04.156Z,101877.63
2019-02-06T14:26:47.614Z,101878.30
2019-02-06T14:30:16.184Z,101875.98
2019-02-06T14:33:34.527Z,101882.64
2019-02-06T14:36:47.203Z,101870.13
2019-02-06T14:40:22.114Z,101867.30
2019-02-06T14:43:32.121Z,101872.11
2019-02-06T14:46:59.507Z,101873.64
2019-02-06T14:50:10.459Z,101874.37
2019-02-06T14:53:24.540Z,101877.80
2019-02-06T14:56:56.622Z,101872.45
2019-02-06T14:59:51.966Z,101877.98
2019-02-06T15:03:17.538Z,101876.59
2019-02-06T15:06:56.804Z,101872.34
2019-02-06T15:10:06.266Z,101869.30
2019-02-06T15:13:04.100Z,101862.97
2019-02-06T15:16:30.841Z,101862.84
2019-02-06T15:19:32.921Z,101859.20
2019-02-06T15:22:46.510Z,101873.73
2019-02-06T15:26:02.703Z,101866.52
2019-02-06T15:29:30.884Z,101859.44
2019-02-06T15:32:38.952Z,101860.07
2019-02-06T15:35:58.038Z,101866.80
2019-02-06T15:39:22.690Z,101851.63
2019-02-06T15:42:18.739Z,101846.45
2019-02-06T15:45:46.401Z,101849.33
2019-02-06T15:49:09.420Z,101841.62
2019-02-06T15:52:20.752Z,101830.98
2019-02-06T15:55:24.263Z,101828.80
2019-02-06T15:58:21.199Z,101826.84
2019-02-06T16:01:25.603Z,101824.05
2019-02-06T16:05:26.095Z,101821.59
2019-02-06T16:08:41.581Z,101808.30
2019-02-06T16:11:55.845Z,101808.12
2019-02-06T16:15:10.138Z,101807.17
2019-02-06T16:18:01.376Z,101805.09
2019-02-06T16:21:06.164Z,101811.98
2019-02-06T16:24:15.927Z,101817.22
2019-02-06T16:27:34.724Z,101806.50
2019-02-06T16:30:44.270Z,101794.99
2019-02-06T16:34:12.820Z,101790.51
2019-02-06T16:37:40.187Z,101792.24
2019-02-06T16:41:04.725Z,101787.72
2019-02-06T16:44:43.609Z,101791.11
2019-02-06T16:47:55.866Z,101791.17
2019-02-06T16:50:48.706Z,101791.00
2019-02-06T16:54:22.495Z,101784.55
2019-02-06T16:57:34.998Z,101785.98
2019-02-06T17:00:58.593Z,101784.23
2019-02-06T17:04:14.240Z,101786.63
2019-02-06T17:07:25.089Z,101781.19
2019-02-06T17:10:40.995Z,101779.80
2019-02-06T17:13:54.151Z,101765.00
2019-02-06T17:17:09.761Z,101768.84
2019-02-06T17:20:07.078Z,101772.20
2019-02-06T17:22:57.417Z,101774.56
2019-02-06T17:26:07.841Z,101776.86
2019-02-06T17:29:09.103Z,101781.88
2019-02-06T17:33:11.201Z,101776.47
2019-02-06T17:36:44.755Z,101782.67
2019-02-06T17:39:51.098Z,101778.53
2019-02-06T17:43:10.259Z,101771.88
2019-02-06T17:46:36.460Z,101776.69
2019-02-06T17:49:56.377Z,101771.27
2019-02-06T17:53:30.121Z,101761.12
2019-02-06T17:56:00.088Z,101752.81
2019-02-06T17:58:36.831Z,101746.91
2019-02-06T18:01:41.775Z,101742.57
2019-02-06T18:04:21.452Z,101737.23
2019-02-06T18:06:51.531Z,101723.71
2019-02-06T18:09:21.598Z,101716.88
2019-02-06T18:11:53.107Z,101711.59
2019-02-06T18:14:23.159Z,101708.78
2019-02-06T18:16:53.210Z,101712.85
2019-02-06T18:19:23.668Z,101710.70
2019-02-06T18:21:54.131Z,101715.44
2019-02-06T18:24:24.265Z,101719.89
2019-02-06T18:26:55.340Z,101721.63
2019-02-06T18:29:25.578Z,101731.78
2019-02-06T18:31:55.586Z,101728.59
2019-02-06T18:34:25.659Z,101726.00
2019-02-06T18:36:56.060Z,101732.94
2019-02-06T18:39:26.170Z,101729.11
2019-02-06T18:41:56.311Z,101725.00
2019-02-06T18:44:26.309Z,101731.77
2019-02-06T18:46:56.847Z,101721.50
2019-02-06T18:49:26.801Z,101733.36
2019-02-06T18:51:56.849Z,101735.85
2019-02-06T18:54:27.131Z,101722.66
2019-02-06T18:56:57.563Z,101726.37
2019-02-06T18:59:27.546Z,101724.17
2019-02-06T19:01:57.592Z,101721.21
2019-02-06T19:04:27.672Z,101723.11
2019-02-06T19:06:57.667Z,101711.69
2019-02-06T19:09:28.995Z,101714.63
2019-02-06T19:11:59.641Z,101712.58
2019-02-06T19:14:29.886Z,101706.03
2019-02-06T19:17:00.019Z,101701.19
2019-02-06T19:19:31.367Z,101695.00
2019-02-06T19:22:01.301Z,101687.30
2019-02-06T19:24:32.691Z,101687.43
2019-02-06T19:27:03.910Z,101686.41
2019-02-06T19:29:35.077Z,101671.59
2019-02-06T19:32:05.609Z,101675.89
2019-02-06T19:34:36.425Z,101669.86
2019-02-06T19:37:08.555Z,101676.24
2019-02-06T19:39:38.462Z,101675.94
2019-02-06T19:42:08.906Z,101671.08
2019-02-06T19:44:39.129Z,101671.14
2019-02-06T19:47:12.027Z,101671.16
2019-02-06T19:49:42.454Z,101658.52
2019-02-06T19:52:13.752Z,101673.80
2019-02-06T19:54:46.181Z,101661.42
2019-02-06T19:57:16.331Z,101672.06
2019-02-06T19:59:47.198Z,101665.28
2019-02-06T20:02:17.084Z,101662.86
2019-02-06T20:04:50.852Z,101649.32
2019-02-06T20:07:20.875Z,101657.75
2019-02-06T20:09:50.889Z,101657.48
2019-02-06T20:12:21.423Z,101660.15
2019-02-06T20:14:52.410Z,101660.06
2019-02-06T20:17:25.321Z,101650.08
2019-02-06T20:19:55.615Z,101649.03
2019-02-06T20:22:26.792Z,101657.36
2019-02-06T20:24:56.928Z,101659.23
2019-02-06T20:27:28.299Z,101664.39
2019-02-06T20:29:58.869Z,101652.25
2019-02-06T20:32:30.409Z,101657.61
2019-02-06T20:35:00.583Z,101655.41
2019-02-06T20:37:31.220Z,101645.95
2019-02-06T20:40:02.996Z,101645.61
2019-02-06T20:42:35.062Z,101648.70
2019-02-06T20:45:06.301Z,101647.83
2019-02-06T20:47:37.374Z,101643.80
2019-02-06T20:50:15.699Z,101649.58
2019-02-06T20:52:45.672Z,101636.52
2019-02-06T20:55:19.584Z,101637.08
2019-02-06T20:57:50.258Z,101632.75
2019-02-06T21:00:27.003Z,101628.09
2019-02-06T21:03:07.530Z,101642.36
2019-02-06T21:05:38.488Z,101642.10
2019-02-06T21:08:09.456Z,101644.04
2019-02-06T21:10:39.646Z,101638.45
2019-02-06T21:13:10.215Z,101634.84
2019-02-06T21:15:40.755Z,101625.95
2019-02-06T21:18:10.861Z,101628.94
2019-02-06T21:20:42.671Z,101624.06
2019-02-06T21:23:13.744Z,101626.19
2019-02-06T21:25:43.671Z,101633.97
2019-02-06T21:28:14.328Z,101637.82
2019-02-06T21:30:46.858Z,101633.84
2019-02-06T21:33:16.181Z,101640.14
2019-02-06T21:35:46.282Z,101634.20
2019-02-06T21:38:16.660Z,101630.60
2019-02-06T21:40:47.760Z,101620.90
2019-02-06T21:43:18.375Z,101615.25
2019-02-06T21:45:48.364Z,101603.33
2019-02-06T21:48:22.176Z,101610.91
2019-02-06T21:50:52.139Z,101609.78
2019-02-06T21:53:22.411Z,101602.16
2019-02-06T21:55:52.605Z,101603.92
2019-02-06T21:58:22.587Z,101593.06
2019-02-06T22:00:52.545Z,101591.70
2019-02-06T22:03:23.302Z,101587.12
2019-02-06T22:05:54.410Z,101578.91
2019-02-06T22:08:24.353Z,101579.53
2019-02-06T22:10:55.984Z,101579.13
2019-02-06T22:13:27.738Z,101579.64
2019-02-06T22:15:58.634Z,101580.84
2019-02-06T22:18:28.702Z,101578.12
2019-02-06T22:20:59.167Z,101582.59
2019-02-06T22:23:31.042Z,101578.95
2019-02-06T22:26:01.205Z,101576.70
2019-02-06T22:28:31.361Z,101571.56
2019-02-06T22:31:02.890Z,101575.14
2019-02-06T22:33:32.875Z,101568.08
2019-02-06T22:36:02.809Z,101552.95
2019-02-06T22:38:32.713Z,101530.53
2019-02-06T22:41:02.748Z,101537.64
2019-02-06T22:43:33.298Z,101548.59
2019-02-06T22:46:03.511Z,101546.00
2019-02-06T22:48:33.814Z,101555.28
2019-02-06T22:51:04.001Z,101568.98
2019-02-06T22:53:34.391Z,101577.80
2019-02-06T22:56:06.543Z,101579.55
2019-02-06T22:58:37.333Z,101579.47
2019-02-06T23:01:52.067Z,101573.75
2019-02-06T23:04:21.992Z,101573.89
2019-02-06T23:06:53.178Z,101556.61
2019-02-06T23:09:23.873Z,101551.06
2019-02-06T23:11:54.006Z,101546.33
2019-02-06T23:14:23.960Z,101546.69
2019-02-06T23:16:53.982Z,101544.48
2019-02-06T23:19:24.243Z,101542.56
2019-02-06T23:21:54.155Z,101545.16
2019-02-06T23:24:24.070Z,101537.85
2019-02-06T23:26:54.028Z,101535.00
2019-02-06T23:29:24.212Z,101530.08
2019-02-06T23:31:54.119Z,101536.25
2019-02-06T23:34:24.130Z,101532.00
2019-02-06T23:36:54.078Z,101527.14
2019-02-06T23:39:24.061Z,101511.02
2019-02-06T23:41:53.963Z,101514.62
2019-02-06T23:44:28.913Z,101506.66
2019-02-06T23:46:56.229Z,101501.44
2019-02-06T23:49:26.633Z,101496.36
2019-02-06T23:51:56.674Z,101489.16
2019-02-06T23:54:26.643Z,101497.05
2019-02-06T23:56:56.873Z,101491.73
2019-02-06T23:59:26.958Z,101485.13
